Time;durP1;ratioP1;P1;durP2;ratioP2;P2;SDS_P1;SDS_P2;PMS_P1;PMS_P2;Temp;Humidity;BMP_temperature;BMP_pressure;BME280_temperature;BME280_humidity;BME280_pressure;Samples;Min_cycle;Max_cycle;Signal;HPM_P1;HPM_P2
2021/06/29 00:02:16;;;;;;;2.55;1.90;;;;;;;18.07;86.81;98297.19;5045832;28;20067;-64
2021/06/29 00:04:41;;;;;;;2.13;1.92;;;;;;;18.08;86.96;98296.22;5045789;28;20021;-64
2021/06/29 00:07:07;;;;;;;4.10;2.08;;;;;;;18.01;87.04;98305.50;5045723;28;20316;-64
2021/06/29 00:09:33;;;;;;;5.45;2.10;;;;;;;18.07;88.01;98329.16;5045698;28;20049;-64
2021/06/29 00:11:59;;;;;;;4.30;2.20;;;;;;;18.02;87.61;98326.72;5045646;28;20028;-64
2021/06/29 00:14:25;;;;;;;3.55;2.15;;;;;;;17.86;87.17;98325.84;5044287;28;20046;-64
2021/06/29 00:16:50;;;;;;;3.47;1.85;;;;;;;17.94;87.33;98318.28;5045524;28;20024;-64
2021/06/29 00:19:18;;;;;;;2.88;1.90;;;;;;;17.91;87.54;98329.09;5045482;28;20021;-64
2021/06/29 00:21:43;;;;;;;3.95;2.25;;;;;;;17.90;87.52;98326.50;5045709;28;20178;-64
2021/06/29 00:24:09;;;;;;;6.68;2.40;;;;;;;17.94;87.65;98328.09;5045414;28;20056;-64
2021/06/29 00:26:34;;;;;;;4.75;2.22;;;;;;;18.01;88.04;98329.47;5045244;28;20033;-64
2021/06/29 00:29:00;;;;;;;3.85;2.05;;;;;;;18.01;88.05;98325.03;5045324;28;20423;-64
2021/06/29 00:31:25;;;;;;;4.90;2.15;;;;;;;17.92;87.43;98335.28;5045265;28;20340;-65
2021/06/29 00:33:50;;;;;;;3.70;2.33;;;;;;;17.93;88.03;98326.34;5045248;28;20029;-65
2021/06/29 00:36:17;;;;;;;2.45;1.85;;;;;;;17.95;88.19;98321.81;5044543;28;20213;-64
2021/06/29 00:38:45;;;;;;;2.40;2.08;;;;;;;17.94;88.17;98328.09;5045233;28;20099;-64
2021/06/29 00:41:11;;;;;;;2.20;2.00;;;;;;;17.90;88.19;98315.88;5045334;28;20052;-64
2021/06/29 00:43:37;;;;;;;2.90;2.25;;;;;;;17.93;88.64;98311.25;5045014;28;20060;-65
2021/06/29 00:46:02;;;;;;;5.00;2.17;;;;;;;17.86;88.36;98298.34;5044908;28;20029;-65
2021/06/29 00:48:28;;;;;;;2.35;2.00;;;;;;;17.85;88.48;98291.31;5044937;28;20021;-65
2021/06/29 00:50:54;;;;;;;2.50;2.25;;;;;;;17.83;89.01;98282.53;5044903;28;20053;-65
2021/06/29 00:53:19;;;;;;;2.78;2.08;;;;;;;17.78;88.80;98285.44;5044868;28;20080;-65
2021/06/29 00:55:45;;;;;;;7.60;2.60;;;;;;;17.73;89.21;98278.63;5044811;28;20041;-65
2021/06/29 00:58:11;;;;;;;13.55;2.50;;;;;;;17.62;89.23;98283.69;5044672;28;20328;-65
2021/06/29 01:00:41;;;;;;;3.85;2.42;;;;;;;17.55;89.11;98282.25;5044781;28;20260;-65
2021/06/29 01:03:06;;;;;;;6.68;2.03;;;;;;;17.62;88.72;98268.56;5045160;28;20085;-65
2021/06/29 01:05:32;;;;;;;3.88;2.45;;;;;;;17.56;88.38;98268.88;5044574;28;20025;-65
2021/06/29 01:07:58;;;;;;;5.28;2.22;;;;;;;17.58;88.68;98250.16;5044611;28;20340;-65
2021/06/29 01:10:23;;;;;;;3.58;2.38;;;;;;;17.48;89.02;98270.22;5044561;28;20025;-65
2021/06/29 01:12:48;;;;;;;4.90;2.50;;;;;;;17.44;89.00;98268.69;5044337;28;20225;-65
2021/06/29 01:15:22;;;;;;;3.53;2.50;;;;;;;17.44;89.15;98252.72;5044484;28;20048;-65
2021/06/29 01:17:48;;;;;;;3.25;2.45;;;;;;;17.50;88.93;98247.06;5044444;28;20040;-65
2021/06/29 01:20:17;;;;;;;5.90;2.80;;;;;;;17.46;89.38;98256.16;5044459;28;20315;-64
2021/06/29 01:22:42;;;;;;;3.92;2.28;;;;;;;17.42;89.59;98259.88;5044484;28;20025;-64
2021/06/29 01:25:10;;;;;;;4.47;2.30;;;;;;;17.39;89.74;98257.38;5044296;28;20032;-64
2021/06/29 01:32:29;;;;;;;6.32;2.53;;;;;;;17.51;89.43;98270.94;5044225;28;20221;-65
2021/06/29 01:34:55;;;;;;;5.93;2.58;;;;;;;17.51;89.13;98254.09;5044156;28;20017;-65
2021/06/29 01:37:21;;;;;;;6.30;2.55;;;;;;;17.46;89.08;98250.84;5044398;28;20017;-64
2021/06/29 01:42:29;;;;;;;4.90;2.20;;;;;;;17.34;89.67;98262.09;5044131;28;20028;-65
2021/06/29 01:44:55;;;;;;;7.15;2.53;;;;;;;17.34;90.02;98273.59;5044011;28;20051;-64
2021/06/29 01:48:04;;;;;;;5.05;2.70;;;;;;;17.30;90.22;98271.19;5042993;28;20026;-64
2021/06/29 01:50:17;;;;;;;3.67;2.20;;;;;;;17.38;90.04;98274.28;5043571;28;20202;-64
2021/06/29 01:52:44;;;;;;;4.13;2.55;;;;;;;17.38;89.91;98268.97;5044025;28;20021;-64
2021/06/29 01:55:10;;;;;;;8.93;2.20;;;;;;;17.37;89.86;98262.78;5043921;28;20032;-64
2021/06/29 01:57:38;;;;;;;3.75;2.22;;;;;;;17.36;89.60;98266.38;5043818;28;20312;-64
2021/06/29 02:00:08;;;;;;;3.42;2.53;;;;;;;17.38;89.60;98258.31;5044145;28;20075;-64
2021/06/29 02:02:34;;;;;;;6.18;2.47;;;;;;;17.31;89.99;98255.16;5044074;28;20025;-64
2021/06/29 02:04:59;;;;;;;5.10;2.40;;;;;;;17.30;90.11;98244.59;5043811;28;20220;-64
2021/06/29 02:07:24;;;;;;;7.28;2.10;;;;;;;17.27;90.52;98244.75;5043718;28;20340;-64
2021/06/29 02:09:50;;;;;;;6.00;2.90;;;;;;;17.19;90.55;98239.81;5043809;28;20029;-64
2021/06/29 02:12:15;;;;;;;4.97;2.00;;;;;;;17.16;90.58;98243.50;5043738;28;20056;-64
2021/06/29 02:14:41;;;;;;;6.10;2.75;;;;;;;17.16;90.78;98243.50;5043566;28;20109;-64
2021/06/29 02:17:06;;;;;;;5.10;2.20;;;;;;;17.18;90.88;98244.25;5043725;28;20025;-64
2021/06/29 02:19:32;;;;;;;3.53;2.28;;;;;;;17.21;90.64;98240.56;5043705;28;20068;-64
2021/06/29 02:21:57;;;;;;;4.55;2.38;;;;;;;17.23;90.71;98242.22;5043678;28;20029;-64
2021/06/29 02:24:22;;;;;;;6.20;2.25;;;;;;;17.21;90.61;98252.09;5043630;28;20317;-64
2021/06/29 02:26:48;;;;;;;3.13;2.20;;;;;;;17.23;90.47;98249.34;5043547;28;20026;-64
2021/06/29 02:29:13;;;;;;;4.20;2.40;;;;;;;17.24;90.60;98235.97;5043608;28;20051;-64
2021/06/29 02:31:38;;;;;;;4.13;1.95;;;;;;;17.26;90.04;98249.19;5043578;28;20032;-64
2021/06/29 02:34:04;;;;;;;6.18;3.80;;;;;;;17.24;90.40;98243.94;5043538;28;20022;-64
2021/06/29 02:36:31;;;;;;;8.10;2.55;;;;;;;17.22;90.13;98248.47;5043517;28;20044;-65
2021/06/29 02:38:56;;;;;;;8.52;2.10;;;;;;;17.23;90.07;98254.66;5043767;28;20380;-65
2021/06/29 02:41:22;;;;;;;4.43;2.38;;;;;;;17.17;90.25;98255.84;5043725;28;20021;-65
2021/06/29 02:43:49;;;;;;;6.97;2.92;;;;;;;17.23;90.14;98249.34;5043647;28;20074;-64
2021/06/29 02:46:14;;;;;;;3.35;2.22;;;;;;;17.17;90.33;98253.19;5043339;28;20313;-64
2021/06/29 02:48:40;;;;;;;2.80;2.28;;;;;;;17.18;90.39;98257.56;5043649;28;20088;-64
2021/06/29 02:51:05;;;;;;;6.05;2.53;;;;;;;17.23;90.21;98255.53;5043415;28;20055;-65
2021/06/29 02:53:31;;;;;;;5.82;2.33;;;;;;;17.25;90.22;98245.66;5043373;28;20025;-65
2021/06/29 02:55:56;;;;;;;3.97;2.47;;;;;;;17.28;90.31;98245.50;5043352;28;20028;-65
2021/06/29 02:58:21;;;;;;;8.88;2.60;;;;;;;17.36;90.63;98239.78;5043734;28;20071;-65
2021/06/29 03:00:47;;;;;;;4.63;2.30;;;;;;;17.32;90.62;98237.34;5047022;28;20033;-64
2021/06/29 03:03:12;;;;;;;3.33;2.13;;;;;;;17.36;90.21;98233.59;5047175;28;20025;-64
2021/06/29 03:05:37;;;;;;;3.17;2.40;;;;;;;17.43;90.33;98225.25;5046924;28;20051;-64
2021/06/29 03:08:03;;;;;;;2.50;2.22;;;;;;;17.44;90.49;98226.13;5046866;28;20052;-64
2021/06/29 03:10:29;;;;;;;4.15;2.30;;;;;;;17.50;90.52;98220.47;5046869;28;20316;-64
2021/06/29 03:12:54;;;;;;;3.85;2.20;;;;;;;17.54;90.28;98220.22;5046633;28;20099;-64
2021/06/29 03:15:19;;;;;;;5.00;2.20;;;;;;;17.53;90.01;98222.97;5045616;28;20053;-64
2021/06/29 03:17:45;;;;;;;6.97;2.33;;;;;;;17.63;89.70;98222.41;5046975;28;20040;-64
2021/06/29 03:20:12;;;;;;;3.65;2.22;;;;;;;17.61;89.59;98223.41;5046646;28;20089;-64
2021/06/29 03:22:38;;;;;;;4.03;1.88;;;;;;;17.61;89.41;98224.28;5046614;28;20021;-64
2021/06/29 03:25:04;;;;;;;5.43;2.72;;;;;;;17.64;89.85;98228.56;5046557;28;20025;-64
2021/06/29 03:27:30;;;;;;;6.20;2.28;;;;;;;17.66;90.24;98232.00;5046425;28;20309;-64
2021/06/29 03:29:55;;;;;;;4.07;2.13;;;;;;;17.59;89.61;98230.63;5046469;28;20217;-64
2021/06/29 03:32:21;;;;;;;7.18;2.50;;;;;;;17.53;89.23;98230.94;5046431;28;20022;-64
2021/06/29 03:34:46;;;;;;;8.85;2.28;;;;;;;17.56;89.22;98230.78;5046442;28;20131;-64
2021/06/29 03:37:11;;;;;;;2.95;2.22;;;;;;;17.62;89.12;98233.13;5046369;28;20021;-64
2021/06/29 03:39:37;;;;;;;2.80;2.25;;;;;;;17.68;89.58;98232.78;5046278;28;20026;-64
2021/06/29 03:42:03;;;;;;;4.47;2.08;;;;;;;17.69;89.45;98229.19;5046216;28;20032;-64
2021/06/29 03:44:28;;;;;;;3.55;2.65;;;;;;;17.72;89.99;98231.69;5046232;28;20025;-64
2021/06/29 03:46:54;;;;;;;4.65;1.92;;;;;;;17.68;89.93;98230.97;5046070;28;20021;-64
2021/06/29 03:49:19;;;;;;;3.78;2.28;;;;;;;17.66;89.87;98232.00;5046109;28;20029;-64
2021/06/29 03:51:45;;;;;;;6.60;2.50;;;;;;;17.68;90.04;98238.13;5046325;28;20075;-64
2021/06/29 03:54:11;;;;;;;4.05;2.38;;;;;;;17.67;89.90;98244.38;5046023;28;20017;-64
2021/06/29 03:56:36;;;;;;;4.45;2.50;;;;;;;17.61;89.98;98234.03;5045966;28;20313;-64
2021/06/29 03:59:07;;;;;;;3.35;2.00;;;;;;;17.61;90.11;98229.59;5045852;28;20029;-65
2021/06/29 04:01:33;;;;;;;5.28;2.78;;;;;;;17.48;89.94;98219.69;5045906;28;20363;-65
2021/06/29 04:03:59;;;;;;;11.10;2.80;;;;;;;17.46;90.22;98221.59;5045841;28;20021;-65
2021/06/29 04:06:27;;;;;;;4.53;2.35;;;;;;;17.47;90.33;98223.28;5045711;28;20325;-65
2021/06/29 04:08:54;;;;;;;5.97;2.30;;;;;;;17.42;90.39;98227.94;5045735;28;20018;-64
2021/06/29 04:11:20;;;;;;;6.35;2.33;;;;;;;17.43;90.75;98224.41;5044677;28;20312;-64
2021/06/29 04:13:46;;;;;;;3.70;2.33;;;;;;;17.43;90.60;98235.03;5045470;28;20075;-64
2021/06/29 04:16:11;;;;;;;3.40;2.10;;;;;;;17.41;90.52;98232.44;5045610;28;20021;-64
2021/06/29 04:18:37;;;;;;;6.95;2.60;;;;;;;17.45;90.68;98235.81;5045574;28;20021;-64
2021/06/29 04:21:03;;;;;;;5.70;2.17;;;;;;;17.51;90.87;98227.50;5045507;28;20313;-64
2021/06/29 04:23:29;;;;;;;3.08;2.30;;;;;;;17.50;90.49;98226.66;5045452;28;20028;-64
2021/06/29 04:25:54;;;;;;;3.50;2.00;;;;;;;17.52;90.48;98206.13;5045322;28;20313;-64
2021/06/29 04:28:19;;;;;;;6.07;2.10;;;;;;;17.57;90.23;98214.75;5045379;28;20025;-64
2021/06/29 04:30:45;;;;;;;5.35;2.38;;;;;;;17.62;89.94;98219.81;5045568;28;20017;-64
2021/06/29 04:33:10;;;;;;;5.05;2.40;;;;;;;17.62;89.94;98214.50;5045294;28;20018;-64
2021/06/29 04:35:36;;;;;;;10.18;2.35;;;;;;;17.66;89.19;98213.38;5044034;28;20024;-64
2021/06/29 04:38:01;;;;;;;4.60;2.50;;;;;;;17.69;89.02;98210.56;5045194;28;20021;-64
2021/06/29 04:40:26;;;;;;;4.50;2.20;;;;;;;17.74;89.18;98208.47;5045156;28;20258;-64
2021/06/29 04:42:52;;;;;;;3.50;2.10;;;;;;;17.70;89.54;98213.13;5045053;28;20021;-64
2021/06/29 04:45:17;;;;;;;4.18;2.15;;;;;;;17.66;89.88;98216.91;5045028;28;20052;-64
2021/06/29 04:47:47;;;;;;;4.22;2.33;;;;;;;17.60;89.75;98219.03;5044946;28;20021;-65
2021/06/29 04:50:14;;;;;;;4.57;2.20;;;;;;;17.70;89.56;98222.91;5044981;28;20297;-65
2021/06/29 04:52:40;;;;;;;5.22;2.45;;;;;;;17.74;89.10;98227.13;5044931;28;20026;-65
2021/06/29 04:55:06;;;;;;;5.70;2.60;;;;;;;17.70;89.05;98222.91;5044821;28;20084;-65
2021/06/29 04:57:33;;;;;;;4.80;2.20;;;;;;;17.77;88.67;98218.97;5044741;28;20025;-65
2021/06/29 05:00:04;;;;;;;8.43;2.47;;;;;;;17.80;88.75;98219.66;5044783;28;20049;-65
2021/06/29 05:02:29;;;;;;;4.05;2.28;;;;;;;17.77;88.67;98214.50;5045037;28;20025;-65
2021/06/29 05:04:55;;;;;;;5.07;2.25;;;;;;;17.81;88.83;98216.06;5044714;28;20375;-64
2021/06/29 05:07:20;;;;;;;7.55;2.80;;;;;;;17.88;88.90;98208.59;5044630;28;20044;-64
2021/06/29 05:09:45;;;;;;;6.78;2.47;;;;;;;17.88;89.81;98205.94;5044630;28;20024;-65
2021/06/29 05:12:11;;;;;;;7.93;2.65;;;;;;;17.96;89.42;98199.25;5044583;28;20064;-65
2021/06/29 05:14:37;;;;;;;4.07;2.22;;;;;;;18.08;89.28;98189.69;5044387;28;20116;-65
2021/06/29 05:17:02;;;;;;;5.85;3.50;;;;;;;18.15;88.25;98193.72;5044489;28;20239;-65
2021/06/29 05:19:27;;;;;;;4.55;2.30;;;;;;;18.26;87.66;98194.84;5044411;28;20028;-65
2021/06/29 05:21:53;;;;;;;3.92;2.30;;;;;;;18.32;87.12;98191.81;5044192;28;20043;-65
2021/06/29 05:24:18;;;;;;;5.47;2.50;;;;;;;18.46;87.18;98193.75;5044398;28;20025;-65
2021/06/29 05:26:45;;;;;;;4.82;2.50;;;;;;;18.60;86.54;98196.44;5044220;28;20022;-65
2021/06/29 05:29:10;;;;;;;3.53;1.95;;;;;;;18.94;86.03;98196.19;5044289;28;20067;-65
2021/06/29 05:31:35;;;;;;;5.18;2.38;;;;;;;19.27;84.28;98204.03;5044237;28;20225;-64
2021/06/29 05:34:01;;;;;;;4.68;1.92;;;;;;;19.57;82.33;98196.78;5044212;28;20246;-65
2021/06/29 05:36:26;;;;;;;2.97;2.00;;;;;;;19.53;81.33;98200.59;5044161;28;20021;-65
2021/06/29 05:38:52;;;;;;;4.57;2.17;;;;;;;19.49;80.77;98205.25;5044105;28;20041;-65
2021/06/29 05:41:17;;;;;;;6.28;2.15;;;;;;;19.34;81.60;98200.88;5044136;28;20017;-65
2021/06/29 05:43:42;;;;;;;2.03;1.63;;;;;;;19.43;82.51;98199.47;5044063;28;20029;-65
2021/06/29 05:46:08;;;;;;;4.78;2.00;;;;;;;19.38;80.72;98190.88;5043952;28;20059;-65
2021/06/29 05:48:34;;;;;;;2.80;1.80;;;;;;;19.37;81.49;98192.69;5044017;28;20253;-65
2021/06/29 05:51:00;;;;;;;8.38;2.20;;;;;;;19.49;80.31;98199.09;5044006;28;20021;-65
2021/06/29 05:53:27;;;;;;;4.85;1.58;;;;;;;19.93;81.16;98189.97;5043953;28;20032;-64
2021/06/29 05:55:53;;;;;;;4.45;1.90;;;;;;;20.17;80.51;98199.16;5043916;28;20021;-65
2021/06/29 05:58:18;;;;;;;3.90;2.03;;;;;;;20.50;79.83;98186.25;5043833;28;20100;-64
2021/06/29 06:00:44;;;;;;;3.65;1.67;;;;;;;20.84;76.79;98190.19;5043881;28;20091;-65
2021/06/29 06:03:10;;;;;;;6.53;1.95;;;;;;;21.39;75.40;98192.69;5043899;28;20021;-65
2021/06/29 06:05:35;;;;;;;2.88;1.40;;;;;;;21.83;74.51;98193.13;5043737;28;20084;-65
2021/06/29 06:08:01;;;;;;;4.75;1.73;;;;;;;22.23;72.55;98186.56;5043822;28;20021;-65
2021/06/29 06:10:26;;;;;;;2.10;1.30;;;;;;;22.14;72.68;98189.91;5043810;28;20216;-65
2021/06/29 06:12:52;;;;;;;1.90;1.40;;;;;;;21.79;73.40;98186.22;5043603;28;20210;-65
2021/06/29 06:15:17;;;;;;;2.40;1.52;;;;;;;22.13;72.38;98182.84;5043799;28;20017;-65
2021/06/29 06:17:43;;;;;;;4.30;1.67;;;;;;;22.62;70.28;98184.50;5043766;28;20041;-65
2021/06/29 06:20:09;;;;;;;4.30;1.30;;;;;;;22.91;68.20;98187.72;5043701;28;20070;-65
2021/06/29 06:22:34;;;;;;;1.70;1.50;;;;;;;22.60;70.35;98188.28;5043653;28;20021;-65
2021/06/29 06:25:00;;;;;;;2.67;1.50;;;;;;;22.96;67.33;98193.56;5043663;28;20040;-65
2021/06/29 06:27:26;;;;;;;3.50;1.45;;;;;;;23.60;67.00;98189.50;5043552;28;20026;-65
2021/06/29 06:29:52;;;;;;;5.72;1.58;;;;;;;24.40;65.74;98181.16;5043596;28;20048;-65
2021/06/29 06:32:17;;;;;;;7.43;1.63;;;;;;;24.94;61.29;98188.22;5043580;28;20028;-65
2021/06/29 06:34:42;;;;;;;1.83;1.40;;;;;;;24.72;63.72;98177.56;5046249;28;20031;-65
2021/06/29 06:37:08;;;;;;;6.28;1.40;;;;;;;24.49;64.00;98192.00;5047453;28;20336;-65
2021/06/29 06:39:33;;;;;;;6.22;2.03;;;;;;;23.79;66.52;98200.50;5047416;28;20028;-65
2021/06/29 06:41:59;;;;;;;2.80;1.45;;;;;;;23.87;66.64;98198.91;5047386;28;20028;-65
2021/06/29 06:44:24;;;;;;;3.30;1.70;;;;;;;23.52;68.36;98198.16;5047326;28;20048;-65
2021/06/29 06:46:50;;;;;;;3.08;1.35;;;;;;;23.23;68.92;98180.75;5047226;28;20029;-65
2021/06/29 06:49:15;;;;;;;2.95;1.63;;;;;;;23.02;69.02;98183.22;5047254;28;20067;-65
2021/06/29 06:51:41;;;;;;;2.22;1.48;;;;;;;23.06;66.90;98181.16;5047223;28;20029;-65
2021/06/29 06:54:06;;;;;;;3.53;1.45;;;;;;;22.90;70.42;98177.91;5047188;28;20212;-65
2021/06/29 06:56:31;;;;;;;2.53;1.48;;;;;;;23.07;69.01;98162.25;5047149;28;20017;-65
2021/06/29 06:58:57;;;;;;;2.22;1.30;;;;;;;23.65;66.75;98166.66;5047007;28;20028;-65
2021/06/29 07:01:22;;;;;;;1.35;1.20;;;;;;;23.63;67.68;98168.59;5046992;28;20021;-65
2021/06/29 07:03:48;;;;;;;1.92;1.35;;;;;;;23.27;66.61;98166.09;5046972;28;20049;-65
2021/06/29 07:06:14;;;;;;;1.95;1.27;;;;;;;23.02;67.39;98166.25;5046903;28;20021;-65
2021/06/29 07:08:40;;;;;;;3.35;1.25;;;;;;;23.48;65.25;98167.13;5046935;28;20089;-65
2021/06/29 07:11:07;;;;;;;7.20;1.63;;;;;;;23.58;63.71;98157.38;5046989;28;20025;-65
2021/06/29 07:13:33;;;;;;;3.72;1.38;;;;;;;23.49;63.34;98166.16;5046637;28;20054;-65
2021/06/29 07:15:58;;;;;;;3.70;1.70;;;;;;;23.08;65.67;98160.41;5046760;28;20056;-65
2021/06/29 07:18:23;;;;;;;2.20;1.50;;;;;;;22.69;66.74;98158.09;5046764;28;20021;-65
2021/06/29 07:20:49;;;;;;;8.65;1.65;;;;;;;23.04;63.91;98164.31;5046694;28;20021;-65
2021/06/29 07:23:16;;;;;;;2.70;1.20;;;;;;;24.55;62.57;98143.06;5046594;28;20026;-65
2021/06/29 07:25:42;;;;;;;3.08;1.08;;;;;;;25.76;56.04;98146.09;5046544;28;20255;-65
2021/06/29 07:28:09;;;;;;;3.95;1.10;;;;;;;25.62;54.89;98149.16;5046554;28;20017;-65
2021/06/29 07:30:36;;;;;;;2.05;1.20;;;;;;;25.63;58.97;98153.56;5046445;28;20036;-65
2021/06/29 07:33:03;;;;;;;5.38;1.63;;;;;;;25.13;59.44;98141.72;5046380;28;20272;-65
2021/06/29 07:35:30;;;;;;;1.88;1.10;;;;;;;25.65;58.05;98135.41;5046387;28;20022;-65
2021/06/29 07:37:55;;;;;;;3.78;1.20;;;;;;;26.16;55.09;98141.59;5046288;28;20023;-65
2021/06/29 07:40:21;;;;;;;1.58;1.05;;;;;;;26.40;54.46;98144.75;5046346;28;20041;-65
2021/06/29 07:42:46;;;;;;;4.68;1.40;;;;;;;25.93;55.18;98129.25;5046246;28;20128;-65
2021/06/29 07:45:12;;;;;;;1.48;1.15;;;;;;;27.05;52.60;98136.88;5046170;28;20044;-65
2021/06/29 07:47:38;;;;;;;5.45;1.20;;;;;;;27.64;54.42;98129.38;5046159;28;20056;-65
2021/06/29 07:50:06;;;;;;;1.90;1.05;;;;;;;28.21;50.18;98121.03;5046118;28;20217;-65
2021/06/29 07:52:32;;;;;;;2.33;1.20;;;;;;;27.91;52.84;98131.28;5046060;28;20021;-65
2021/06/29 07:54:57;;;;;;;4.50;1.30;;;;;;;27.46;53.09;98123.00;5046041;28;20025;-65
2021/06/29 07:57:22;;;;;;;3.65;0.95;;;;;;;28.23;48.48;98121.72;5045943;28;20043;-65
2021/06/29 07:59:48;;;;;;;4.15;1.10;;;;;;;28.49;47.82;98119.16;5046199;28;20025;-65
2021/06/29 08:02:13;;;;;;;2.03;1.05;;;;;;;28.24;47.63;98118.00;5045912;28;20021;-65
2021/06/29 08:04:40;;;;;;;5.68;1.52;;;;;;;27.89;48.62;98101.69;5045913;28;20092;-65
2021/06/29 08:07:06;;;;;;;6.00;1.05;;;;;;;28.75;45.06;98093.88;5045762;28;20024;-65
2021/06/29 08:09:31;;;;;;;4.78;1.27;;;;;;;28.50;49.02;98097.34;5045760;28;20021;-65
2021/06/29 08:11:56;;;;;;;2.03;1.08;;;;;;;28.97;48.39;98090.66;5045704;28;20317;-65
2021/06/29 08:14:22;;;;;;;1.90;1.20;;;;;;;28.67;46.54;98088.34;5045553;28;20041;-65
2021/06/29 08:16:47;;;;;;;2.92;1.33;;;;;;;29.06;44.13;98089.75;5045642;28;20017;-65
2021/06/29 08:19:13;;;;;;;6.47;1.40;;;;;;;28.40;47.06;98090.25;5045597;28;20269;-65
2021/06/29 08:21:38;;;;;;;4.15;1.30;;;;;;;27.86;48.38;98095.72;5045536;28;20022;-65
2021/06/29 08:24:05;;;;;;;5.03;1.25;;;;;;;27.40;49.09;98098.44;5045487;28;20047;-65
2021/06/29 08:26:30;;;;;;;2.55;1.55;;;;;;;28.13;48.65;98093.88;5045357;28;20029;-65
2021/06/29 08:28:56;;;;;;;4.50;1.13;;;;;;;28.00;48.63;98093.34;5045394;28;20216;-65
2021/06/29 08:31:21;;;;;;;1.58;1.10;;;;;;;29.06;46.87;98088.91;5045338;28;20018;-65
2021/06/29 08:33:48;;;;;;;1.75;1.10;;;;;;;29.73;46.81;98093.63;5045327;28;20096;-65
2021/06/29 08:36:14;;;;;;;3.08;1.10;;;;;;;29.89;46.38;98093.72;5045244;28;20021;-65
2021/06/29 08:38:39;;;;;;;4.78;1.40;;;;;;;29.43;46.23;98083.22;5045217;28;20379;-65
2021/06/29 08:41:05;;;;;;;3.13;1.35;;;;;;;29.05;46.18;98081.78;5045148;28;20067;-65
2021/06/29 08:43:32;;;;;;;2.88;1.40;;;;;;;28.04;49.38;98075.84;5045086;28;20025;-65
2021/06/29 08:45:57;;;;;;;6.35;1.70;;;;;;;27.69;48.55;98083.81;5045046;28;20035;-65
2021/06/29 08:48:23;;;;;;;2.85;1.63;;;;;;;27.24;51.59;98082.84;5045051;28;20041;-65
2021/06/29 08:50:48;;;;;;;2.75;1.23;;;;;;;26.73;53.46;98083.16;5045000;28;20048;-65
2021/06/29 08:53:14;;;;;;;3.17;1.23;;;;;;;26.18;54.30;98080.25;5044935;28;20021;-65
2021/06/29 08:55:46;;;;;;;3.72;1.50;;;;;;;26.23;53.34;98083.38;5044934;28;20067;-65
2021/06/29 08:58:15;;;;;;;;;;;;;;;25.74;54.93;98075.25;5044850;28;20072;-65
2021/06/29 09:00:40;;;;;;;2.58;1.30;;;;;;;25.50;56.20;98066.69;5044811;28;19952;-65
2021/06/29 09:03:06;;;;;;;2.63;1.58;;;;;;;25.26;60.98;98069.66;5044764;28;20024;-65
2021/06/29 09:05:32;;;;;;;3.80;1.73;;;;;;;25.57;60.04;98063.31;5044669;28;20025;-65
2021/06/29 09:08:12;;;;;;;1.92;1.10;;;;;;;26.11;52.96;98057.53;5044818;28;20022;-65
2021/06/29 09:10:41;;;;;;;1.83;1.27;;;;;;;25.94;55.98;98059.00;5044663;28;20025;-65
2021/06/29 09:13:07;;;;;;;4.53;1.30;;;;;;;26.54;55.27;98055.28;5044598;28;20061;-65
2021/06/29 09:15:44;;;;;;;2.78;1.20;;;;;;;27.84;50.17;98039.00;5044849;28;20198;-65
2021/06/29 09:18:12;;;;;;;2.28;1.27;;;;;;;28.80;47.40;98040.09;5044598;28;20033;-65
2021/06/29 09:20:42;;;;;;;2.00;1.30;;;;;;;28.27;48.58;98041.06;5044458;28;20372;-65
2021/06/29 09:23:16;;;;;;;3.50;1.20;;;;;;;27.94;50.81;98045.28;5044412;28;20021;-65
2021/06/29 09:25:49;;;;;;;1.50;1.20;;;;;;;27.29;54.00;98048.09;5044402;28;20025;-65
2021/06/29 09:28:27;;;;;;;2.85;1.30;;;;;;;26.47;55.91;98048.72;5044339;28;20031;-65
2021/06/29 09:31:20;;;;;;;4.63;1.30;;;;;;;26.50;53.39;98038.50;5043177;28;20017;-65
2021/06/29 09:33:52;;;;;;;2.40;1.30;;;;;;;26.11;57.13;98041.34;5044002;28;20206;-65
2021/06/29 09:36:23;;;;;;;1.75;1.13;;;;;;;26.49;54.20;98041.34;5044176;28;20021;-65
2021/06/29 09:38:50;;;;;;;1.58;1.30;;;;;;;26.60;53.08;98039.34;5044214;28;20025;-65
2021/06/29 09:41:17;;;;;;;3.67;1.50;;;;;;;26.57;54.88;98054.97;5044117;28;20037;-65
2021/06/29 09:43:45;;;;;;;4.93;1.50;;;;;;;25.51;56.78;98060.28;5044100;28;20047;-65
2021/06/29 09:46:13;;;;;;;1.83;1.20;;;;;;;25.32;55.39;98057.50;5044037;28;20026;-65
2021/06/29 09:48:50;;;;;;;3.17;1.23;;;;;;;25.03;58.90;98063.56;5044054;28;20032;-65
2021/06/29 09:51:17;;;;;;;1.60;1.45;;;;;;;25.07;56.82;98048.88;5044014;28;20032;-65
2021/06/29 09:53:43;;;;;;;2.97;1.20;;;;;;;24.51;59.38;98044.75;5043982;28;20029;-65
2021/06/29 09:56:19;;;;;;;5.15;1.23;;;;;;;24.53;58.81;98050.00;5044199;28;20029;-65
2021/06/29 09:58:51;;;;;;;1.77;1.20;;;;;;;24.02;60.92;98068.66;5043848;28;20028;-65
2021/06/29 10:01:19;;;;;;;1.67;1.20;;;;;;;24.05;59.93;98064.88;5043951;28;20132;-65
2021/06/29 10:03:46;;;;;;;4.55;1.50;;;;;;;23.71;62.18;98064.03;5043853;28;20032;-65
2021/06/29 10:06:16;;;;;;;2.47;1.40;;;;;;;23.43;67.18;98063.69;5043847;28;20220;-65
2021/06/29 10:08:44;;;;;;;1.95;1.33;;;;;;;23.31;69.01;98057.47;5044863;28;20028;-65
2021/06/29 10:11:20;;;;;;;1.52;1.42;;;;;;;23.07;69.71;98064.75;5047954;28;20029;-65
2021/06/29 10:13:47;;;;;;;3.25;1.75;;;;;;;22.85;70.63;98072.78;5047736;28;20055;-65
2021/06/29 10:16:14;;;;;;;2.67;1.40;;;;;;;22.88;69.23;98077.91;5047873;28;20025;-65
2021/06/29 10:18:53;;;;;;;7.13;1.50;;;;;;;22.86;71.38;98075.34;5047857;28;20333;-65
2021/06/29 10:21:22;;;;;;;2.55;1.33;;;;;;;22.42;71.46;98074.28;5047815;28;20021;-65
2021/06/29 10:23:55;;;;;;;4.38;1.35;;;;;;;22.48;72.21;98072.03;5047702;28;20026;-65
2021/06/29 10:26:22;;;;;;;12.80;2.70;;;;;;;22.17;73.82;98058.34;5047665;28;20033;-65
2021/06/29 10:28:49;;;;;;;7.45;1.90;;;;;;;21.88;76.03;98062.31;5047550;28;20026;-65
2021/06/29 10:31:20;;;;;;;8.27;1.63;;;;;;;21.73;77.88;98061.63;5047579;28;20112;-65
2021/06/29 10:33:47;;;;;;;17.23;1.73;;;;;;;21.75;77.28;98056.16;5047673;28;20081;-65
2021/06/29 10:36:13;;;;;;;8.85;2.75;;;;;;;21.68;79.05;98052.19;5047512;28;20438;-65
2021/06/29 10:38:39;;;;;;;9.93;2.78;;;;;;;21.41;79.64;98051.53;5047786;28;20032;-65
2021/06/29 10:41:04;;;;;;;15.88;2.42;;;;;;;21.15;79.59;98048.88;5047458;28;20063;-65
2021/06/29 10:43:34;;;;;;;10.65;2.30;;;;;;;21.09;80.66;98045.78;5047399;28;20025;-65
2021/06/29 10:46:02;;;;;;;17.60;2.72;;;;;;;20.89;81.46;98048.97;5047282;28;21868;-65
2021/06/29 10:48:30;;;;;;;8.82;2.40;;;;;;;20.77;80.41;98056.03;5047324;28;20070;-65
2021/06/29 10:50:59;;;;;;;4.30;2.60;;;;;;;20.86;81.21;98059.88;5047234;28;20025;-65
2021/06/29 10:53:31;;;;;;;5.90;2.42;;;;;;;20.80;81.30;98071.00;5047202;28;20085;-65
2021/06/29 10:55:56;;;;;;;;;;;;;;;20.76;79.41;98077.53;5047625;28;20052;-65
2021/06/29 10:58:40;;;;;;;3.47;1.83;;;;;;;20.77;78.86;98087.25;5047079;28;19912;-65
2021/06/29 11:01:23;;;;;;;3.80;1.90;;;;;;;20.50;79.85;98106.03;5047043;28;20032;-65
